createdAt,value
2022-09-09T00:02:29.413Z,1.23
2022-09-09T00:05:02.373Z,1.20
2022-09-09T00:07:37.180Z,1.33
2022-09-09T00:10:10.988Z,1.27
2022-09-09T00:12:40.944Z,1.55
2022-09-09T00:15:13.309Z,1.27
2022-09-09T00:17:43.168Z,1.27
2022-09-09T00:20:34.234Z,1.20
2022-09-09T00:23:04.171Z,1.90
2022-09-09T00:25:35.112Z,1.05
2022-09-09T00:28:03.018Z,1.60
2022-09-09T00:30:33.665Z,1.52
2022-09-09T00:33:02.570Z,1.95
2022-09-09T00:35:33.226Z,1.52
2022-09-09T00:38:03.744Z,1.45
2022-09-09T00:40:33.702Z,1.73
2022-09-09T00:43:11.686Z,2.58
2022-09-09T00:46:27.847Z,1.30
2022-09-09T00:48:59.948Z,1.73
2022-09-09T00:51:32.816Z,1.30
2022-09-09T00:54:24.945Z,1.33
2022-09-09T00:56:56.025Z,1.55
2022-09-09T00:59:28.596Z,1.23
2022-09-09T01:01:56.556Z,1.20
2022-09-09T01:04:29.911Z,1.38
2022-09-09T01:07:01.618Z,1.60
2022-09-09T01:09:30.393Z,1.30
2022-09-09T01:12:01.572Z,1.63
2022-09-09T01:14:37.420Z,2.15
2022-09-09T01:17:06.455Z,0.93
2022-09-09T01:19:40.347Z,1.42
2022-09-09T01:22:12.675Z,2.35
2022-09-09T01:24:41.254Z,1.20
2022-09-09T01:27:10.172Z,1.40
2022-09-09T01:29:37.865Z,1.73
2022-09-09T01:32:43.389Z,1.38
2022-09-09T01:35:12.794Z,2.25
2022-09-09T01:37:40.345Z,1.88
2022-09-09T01:40:09.095Z,2.45
2022-09-09T01:42:36.681Z,3.15
2022-09-09T01:45:04.507Z,1.63
2022-09-09T01:47:32.257Z,1.40
2022-09-09T01:50:01.133Z,1.75
2022-09-09T01:52:28.665Z,1.02
2022-09-09T01:54:56.233Z,1.30
2022-09-09T01:57:25.310Z,1.27
2022-09-09T02:00:00.896Z,1.00
2022-09-09T02:02:29.734Z,1.73
2022-09-09T02:04:58.941Z,1.65
2022-09-09T02:07:34.510Z,3.42
2022-09-09T02:10:03.962Z,1.48
2022-09-09T02:12:31.503Z,1.02
2022-09-09T02:15:05.882Z,1.35
2022-09-09T02:17:35.126Z,1.73
2022-09-09T02:20:06.158Z,1.10
2022-09-09T02:22:35.739Z,2.55
2022-09-09T02:25:03.330Z,1.95
2022-09-09T02:27:30.849Z,2.63
2022-09-09T02:29:58.571Z,2.58
2022-09-09T02:32:26.110Z,1.98
2022-09-09T02:34:56.020Z,1.20
2022-09-09T02:37:26.058Z,1.00
2022-09-09T02:39:55.142Z,2.88
2022-09-09T02:42:23.277Z,1.00
2022-09-09T02:44:50.801Z,1.23
2022-09-09T02:47:29.150Z,1.40
2022-09-09T02:50:03.241Z,1.30
2022-09-09T02:52:34.612Z,1.23
2022-09-09T02:55:06.953Z,2.67
2022-09-09T02:57:34.455Z,2.17
2022-09-09T03:00:02.611Z,1.50
2022-09-09T03:02:30.286Z,1.35
2022-09-09T03:04:57.942Z,1.30
2022-09-09T03:07:25.446Z,1.30
2022-09-09T03:09:53.533Z,1.50
2022-09-09T03:12:22.487Z,1.50
2022-09-09T03:14:50.718Z,2.13
2022-09-09T03:17:18.683Z,4.03
2022-09-09T03:19:46.182Z,1.85
2022-09-09T03:22:14.239Z,3.25
2022-09-09T03:24:41.780Z,1.40
2022-09-09T03:27:09.372Z,1.40
2022-09-09T03:29:38.244Z,1.95
2022-09-09T03:32:06.164Z,1.35
2022-09-09T03:34:33.873Z,1.35
2022-09-09T03:37:01.497Z,2.03
2022-09-09T03:39:30.003Z,1.92
2022-09-09T03:41:57.555Z,3.58
2022-09-09T03:44:25.157Z,2.40
2022-09-09T03:46:54.046Z,2.55
2022-09-09T03:49:22.992Z,3.67
2022-09-09T03:51:50.517Z,3.95
2022-09-09T03:54:18.187Z,2.80
2022-09-09T03:56:46.550Z,2.05
2022-09-09T03:59:15.245Z,1.90
2022-09-09T04:01:42.769Z,2.22
2022-09-09T04:04:13.004Z,1.30
2022-09-09T04:06:40.516Z,1.42
2022-09-09T04:09:08.045Z,3.35
2022-09-09T04:11:35.697Z,2.38
2022-09-09T04:14:03.200Z,1.65
2022-09-09T04:16:30.835Z,2.22
2022-09-09T04:18:59.125Z,1.38
2022-09-09T04:21:28.187Z,1.50
2022-09-09T04:23:55.708Z,1.83
2022-09-09T04:26:23.404Z,2.63
2022-09-09T04:28:51.328Z,1.88
2022-09-09T04:31:21.111Z,1.35
2022-09-09T04:33:48.829Z,1.40
2022-09-09T04:36:16.353Z,1.92
2022-09-09T04:38:45.552Z,1.42
2022-09-09T04:41:13.206Z,1.35
2022-09-09T04:43:40.786Z,1.17
2022-09-09T04:46:08.521Z,2.10
2022-09-09T04:48:36.262Z,2.00
2022-09-09T04:51:05.649Z,2.85
2022-09-09T04:53:34.954Z,1.83
2022-09-09T04:56:08.292Z,1.70
2022-09-09T04:58:36.716Z,1.70
2022-09-09T05:01:06.226Z,2.47
2022-09-09T05:03:33.789Z,2.05
2022-09-09T05:06:06.475Z,2.58
2022-09-09T05:08:34.105Z,3.65
2022-09-09T05:11:01.674Z,3.03
2022-09-09T05:13:32.341Z,1.52
2022-09-09T05:15:59.954Z,1.35
2022-09-09T05:18:27.503Z,1.58
2022-09-09T05:20:58.767Z,1.30
2022-09-09T05:23:26.537Z,1.30
2022-09-09T05:25:57.925Z,1.30
2022-09-09T05:28:26.689Z,3.35
2022-09-09T05:30:59.635Z,1.25
2022-09-09T05:33:27.654Z,1.23
2022-09-09T05:35:59.980Z,1.60
2022-09-09T05:38:28.869Z,3.85
2022-09-09T05:40:56.957Z,1.58
2022-09-09T05:43:24.693Z,1.48
2022-09-09T05:46:03.109Z,1.15
2022-09-09T05:48:31.804Z,1.27
2022-09-09T05:50:59.575Z,1.30
2022-09-09T05:53:27.536Z,1.42
2022-09-09T05:56:04.268Z,1.17
2022-09-09T05:58:32.114Z,1.35
2022-09-09T06:01:05.704Z,1.08
2022-09-09T06:03:33.323Z,1.27
2022-09-09T06:06:01.983Z,1.33
2022-09-09T06:08:29.585Z,1.00
2022-09-09T06:11:03.907Z,1.77
2022-09-09T06:13:34.769Z,1.20
2022-09-09T06:16:04.234Z,1.30
2022-09-09T06:18:31.858Z,1.20
2022-09-09T06:20:59.881Z,1.20
2022-09-09T06:23:27.636Z,1.40
2022-09-09T06:26:02.937Z,1.20
2022-09-09T06:28:30.525Z,1.10
2022-09-09T06:31:01.469Z,1.25
2022-09-09T06:33:32.838Z,1.98
2022-09-09T06:36:00.396Z,2.05
2022-09-09T06:38:28.541Z,1.90
2022-09-09T06:40:56.617Z,1.42
2022-09-09T06:43:24.157Z,1.10
2022-09-09T06:45:56.225Z,1.30
2022-09-09T06:48:23.915Z,1.30
2022-09-09T06:50:52.797Z,1.23
2022-09-09T06:53:20.909Z,1.40
2022-09-09T06:55:48.927Z,1.35
2022-09-09T06:58:16.623Z,1.38
2022-09-09T07:00:44.404Z,2.00
2022-09-09T07:03:12.101Z,1.20
2022-09-09T07:05:39.629Z,1.73
2022-09-09T07:08:08.519Z,1.20
2022-09-09T07:10:36.591Z,1.20
2022-09-09T07:13:05.575Z,1.42
2022-09-09T07:15:34.676Z,1.25
2022-09-09T07:18:03.161Z,1.40
2022-09-09T07:20:30.720Z,1.25
2022-09-09T07:22:59.393Z,1.80
2022-09-09T07:25:29.899Z,1.40
2022-09-09T07:27:57.852Z,1.38
2022-09-09T07:30:27.767Z,2.40
2022-09-09T07:32:57.831Z,1.33
2022-09-09T07:35:25.443Z,1.10
2022-09-09T07:37:53.066Z,1.38
2022-09-09T07:40:21.674Z,1.20
2022-09-09T07:42:50.664Z,1.10
2022-09-09T07:45:18.258Z,1.50
2022-09-09T07:47:45.999Z,2.08
2022-09-09T07:50:13.643Z,1.45
2022-09-09T07:52:41.540Z,1.38
2022-09-09T07:55:10.212Z,2.13
2022-09-09T07:57:57.696Z,1.20
2022-09-09T08:00:25.362Z,1.33
2022-09-09T08:02:55.150Z,1.67
2022-09-09T08:05:23.291Z,1.25
2022-09-09T08:07:50.842Z,1.92
2022-09-09T08:10:18.984Z,1.27
2022-09-09T08:13:01.342Z,1.10
2022-09-09T08:15:36.024Z,1.42
2022-09-09T08:18:03.598Z,1.13
2022-09-09T08:20:31.156Z,2.00
2022-09-09T08:22:59.892Z,1.60
2022-09-09T08:25:27.511Z,1.58
2022-09-09T08:27:55.118Z,1.30
2022-09-09T08:30:22.635Z,1.10
2022-09-09T08:32:53.889Z,1.40
2022-09-09T08:35:21.872Z,1.00
2022-09-09T08:37:51.526Z,2.22
2022-09-09T08:40:22.429Z,1.45
2022-09-09T08:42:50.217Z,1.27
2022-09-09T08:45:23.699Z,0.98
2022-09-09T08:47:58.635Z,1.15
2022-09-09T08:50:27.585Z,2.03
2022-09-09T08:52:58.270Z,1.20
2022-09-09T08:55:34.223Z,1.20
2022-09-09T08:58:03.777Z,1.33
2022-09-09T09:00:36.390Z,1.20
2022-09-09T09:03:08.268Z,1.08
2022-09-09T09:05:39.021Z,1.95
2022-09-09T09:08:10.356Z,1.25
2022-09-09T09:10:44.963Z,0.98
2022-09-09T09:13:17.935Z,1.23
2022-09-09T09:15:45.925Z,0.93
2022-09-09T09:18:15.053Z,1.13
2022-09-09T09:20:48.619Z,1.20
2022-09-09T09:23:19.329Z,1.00
2022-09-09T09:25:46.891Z,1.23
2022-09-09T09:28:18.238Z,1.40
2022-09-09T09:30:48.393Z,1.30
2022-09-09T09:33:19.649Z,1.23
2022-09-09T09:35:47.184Z,0.80
2022-09-09T09:41:06.291Z,1.00
2022-09-09T09:43:35.069Z,0.85
2022-09-09T09:46:18.364Z,1.42
2022-09-09T09:48:47.715Z,1.10
2022-09-09T09:51:17.006Z,0.95
2022-09-09T09:53:44.645Z,1.27
2022-09-09T09:56:13.691Z,2.25
2022-09-09T09:58:51.542Z,1.67
2022-09-09T10:01:22.828Z,1.08
2022-09-09T10:03:53.908Z,1.30
2022-09-09T10:06:31.731Z,2.00
2022-09-09T10:08:59.277Z,3.22
2022-09-09T10:11:35.782Z,4.03
2022-09-09T10:14:16.014Z,13.30
2022-09-09T10:16:53.276Z,19.83
2022-09-09T10:19:28.603Z,25.90
2022-09-09T10:22:02.562Z,23.80
2022-09-09T10:24:45.305Z,23.92
2022-09-09T10:27:17.815Z,14.93
2022-09-09T10:30:09.573Z,16.02
2022-09-09T10:32:42.840Z,13.23
2022-09-09T10:35:33.833Z,10.40
2022-09-09T10:38:19.372Z,12.27
2022-09-09T10:41:01.432Z,13.07
2022-09-09T10:43:50.525Z,9.55
2022-09-09T10:46:19.906Z,9.60
2022-09-09T10:48:58.876Z,8.65
2022-09-09T10:51:31.361Z,10.13
2022-09-09T10:54:13.634Z,9.95
2022-09-09T10:56:42.372Z,10.77
2022-09-09T10:59:14.025Z,10.38
2022-09-09T11:01:45.585Z,6.53
2022-09-09T11:04:16.053Z,8.63
2022-09-09T11:06:47.366Z,5.63
2022-09-09T11:09:18.187Z,7.25
2022-09-09T11:11:48.049Z,8.55
2022-09-09T11:14:17.477Z,5.78
2022-09-09T11:16:49.078Z,3.78
2022-09-09T11:19:19.761Z,6.20
2022-09-09T11:21:49.394Z,4.32
2022-09-09T11:24:20.084Z,5.20
2022-09-09T11:26:50.531Z,4.47
2022-09-09T11:29:28.038Z,4.10
2022-09-09T11:32:02.648Z,5.53
2022-09-09T11:34:38.414Z,3.83
2022-09-09T11:37:43.695Z,5.53
2022-09-09T11:40:16.961Z,4.68
2022-09-09T11:42:44.508Z,2.72
2022-09-09T11:45:22.978Z,3.58
2022-09-09T11:47:54.599Z,3.55
2022-09-09T11:50:36.015Z,3.45
2022-09-09T11:53:21.778Z,3.58
2022-09-09T11:55:49.320Z,3.90
2022-09-09T11:58:39.926Z,3.58
2022-09-09T12:01:31.995Z,3.30
2022-09-09T12:04:17.503Z,3.65
2022-09-09T12:06:51.730Z,3.15
2022-09-09T12:09:25.213Z,3.67
2022-09-09T12:11:52.808Z,2.90
2022-09-09T12:14:24.720Z,2.83
2022-09-09T12:16:52.864Z,2.85
2022-09-09T12:19:24.812Z,4.38
2022-09-09T12:21:59.919Z,2.72
2022-09-09T12:24:32.840Z,2.28
2022-09-09T12:27:02.441Z,4.10
2022-09-09T12:29:31.903Z,2.75
2022-09-09T12:32:02.179Z,2.25
2022-09-09T12:34:36.765Z,3.35
2022-09-09T12:37:06.812Z,3.72
2022-09-09T12:39:37.415Z,2.97
2022-09-09T12:42:05.346Z,4.47
2022-09-09T12:44:33.675Z,2.47
2022-09-09T12:47:02.428Z,4.05
2022-09-09T12:49:35.081Z,2.38
2022-09-09T12:52:04.132Z,3.08
2022-09-09T12:54:31.664Z,3.58
2022-09-09T12:57:00.549Z,2.03
2022-09-09T12:59:28.997Z,2.00
2022-09-09T13:01:59.760Z,3.10
2022-09-09T13:04:27.441Z,1.88
2022-09-09T13:06:56.323Z,2.33
2022-09-09T13:09:23.942Z,2.22
2022-09-09T13:11:52.429Z,2.35
2022-09-09T13:14:24.960Z,1.98
2022-09-09T13:16:59.065Z,11.98
2022-09-09T13:19:28.832Z,4.07
2022-09-09T13:21:56.599Z,5.15
2022-09-09T13:24:29.383Z,3.60
2022-09-09T13:26:58.378Z,15.43
2022-09-09T13:29:27.276Z,4.72
2022-09-09T13:31:54.849Z,3.63
2022-09-09T13:34:29.426Z,2.33
2022-09-09T13:37:00.024Z,3.30
2022-09-09T13:39:27.557Z,2.25
2022-09-09T13:41:55.689Z,11.75
2022-09-09T13:44:24.990Z,3.53
2022-09-09T13:47:07.997Z,2.05
2022-09-09T13:49:37.678Z,1.98
2022-09-09T13:52:06.991Z,2.42
2022-09-09T13:54:34.531Z,2.72
2022-09-09T13:57:02.481Z,2.72
2022-09-09T13:59:53.874Z,1.98
2022-09-09T14:02:19.042Z,1.83
2022-09-09T14:04:46.721Z,2.92
2022-09-09T14:07:14.592Z,3.67
2022-09-09T14:09:42.340Z,3.70
2022-09-09T14:12:11.083Z,3.40
2022-09-09T14:14:38.625Z,1.55
2022-09-09T14:17:07.969Z,2.92
2022-09-09T14:19:37.949Z,1.92
2022-09-09T14:22:05.530Z,1.92
2022-09-09T14:24:33.510Z,1.25
2022-09-09T14:27:01.038Z,1.60
2022-09-09T14:29:28.532Z,1.75
2022-09-09T14:31:56.272Z,1.70
2022-09-09T14:34:23.800Z,2.55
2022-09-09T14:36:52.802Z,1.92
2022-09-09T14:39:20.433Z,4.53
2022-09-09T14:41:47.983Z,5.18
2022-09-09T14:44:17.006Z,5.80
2022-09-09T14:46:44.578Z,1.58
2022-09-09T14:49:13.688Z,4.97
2022-09-09T14:51:41.258Z,1.60
2022-09-09T14:54:10.204Z,2.30
2022-09-09T14:56:37.754Z,1.55
2022-09-09T14:59:05.500Z,3.75
2022-09-09T15:01:34.887Z,2.55
2022-09-09T15:04:04.154Z,1.75
2022-09-09T15:06:33.890Z,2.63
2022-09-09T15:09:01.504Z,1.52
2022-09-09T15:11:31.682Z,3.22
2022-09-09T15:13:59.198Z,1.35
2022-09-09T15:16:28.117Z,0.82
2022-09-09T15:18:56.580Z,1.17
2022-09-09T15:21:25.033Z,3.53
2022-09-09T15:23:53.205Z,1.33
2022-09-09T15:26:21.658Z,1.38
2022-09-09T15:28:51.729Z,2.38
2022-09-09T15:31:20.245Z,0.90
2022-09-09T15:33:50.753Z,3.20
2022-09-09T15:36:19.384Z,3.80
2022-09-09T15:38:47.040Z,5.75
2022-09-09T15:41:15.036Z,3.08
2022-09-09T15:43:45.358Z,4.88
2022-09-09T15:46:29.056Z,7.63
2022-09-09T15:48:57.330Z,5.75
2022-09-09T15:51:41.727Z,4.63
2022-09-09T15:54:10.810Z,4.28
2022-09-09T15:56:38.334Z,7.22
2022-09-09T15:59:05.861Z,5.47
2022-09-09T16:01:35.267Z,5.15
2022-09-09T16:04:04.477Z,5.47
2022-09-09T16:06:35.216Z,8.05
2022-09-09T16:09:05.097Z,5.93
2022-09-09T16:11:33.733Z,4.55
2022-09-09T16:14:04.939Z,4.43
2022-09-09T16:16:34.195Z,4.57
2022-09-09T16:19:02.349Z,1.85
2022-09-09T16:21:30.728Z,4.40
2022-09-09T16:24:00.287Z,2.85
2022-09-09T16:26:28.639Z,4.22
2022-09-09T16:28:56.288Z,4.43
2022-09-09T16:31:24.729Z,3.30
2022-09-09T16:33:53.711Z,2.28
2022-09-09T16:36:22.246Z,3.67
2022-09-09T16:38:49.818Z,3.25
2022-09-09T16:41:17.429Z,2.58
2022-09-09T16:43:44.984Z,5.65
2022-09-09T16:46:14.771Z,3.50
2022-09-09T16:48:42.477Z,7.03
2022-09-09T16:51:15.152Z,3.03
2022-09-09T16:53:44.025Z,1.83
2022-09-09T16:56:13.125Z,2.95
2022-09-09T16:58:40.770Z,1.70
2022-09-09T17:01:08.423Z,2.00
2022-09-09T17:03:35.962Z,1.50
2022-09-09T17:06:03.938Z,2.05
2022-09-09T17:08:34.272Z,1.35
2022-09-09T17:11:01.820Z,4.05
2022-09-09T17:13:29.333Z,1.67
2022-09-09T17:16:02.230Z,1.17
2022-09-09T17:18:30.637Z,2.15
2022-09-09T17:20:58.247Z,2.33
2022-09-09T17:23:29.442Z,2.33
2022-09-09T17:26:01.308Z,3.22
2022-09-09T17:28:32.098Z,1.33
2022-09-09T17:31:01.691Z,2.53
2022-09-09T17:33:31.707Z,4.10
2022-09-09T17:36:00.408Z,3.55
2022-09-09T17:38:47.773Z,1.75
2022-09-09T17:41:17.850Z,1.27
2022-09-09T17:43:47.090Z,2.72
2022-09-09T17:46:20.679Z,1.63
2022-09-09T17:48:48.782Z,2.13
2022-09-09T17:51:20.232Z,1.17
2022-09-09T17:53:48.894Z,1.42
2022-09-09T17:56:22.085Z,1.38
2022-09-09T17:58:50.092Z,1.75
2022-09-09T18:01:19.304Z,1.65
2022-09-09T18:03:48.974Z,1.02
2022-09-09T18:06:18.368Z,0.95
2022-09-09T18:08:50.034Z,1.80
2022-09-09T18:11:17.945Z,2.45
2022-09-09T18:13:49.913Z,1.70
2022-09-09T18:16:18.642Z,1.42
2022-09-09T18:18:47.009Z,3.67
2022-09-09T18:21:15.077Z,1.02
2022-09-09T18:23:47.070Z,2.92
2022-09-09T18:26:16.174Z,1.38
2022-09-09T18:28:44.341Z,2.08
2022-09-09T18:31:14.785Z,1.50
2022-09-09T18:33:44.007Z,1.23
2022-09-09T18:36:12.603Z,2.75
2022-09-09T18:38:40.200Z,2.17
2022-09-09T18:41:15.542Z,2.03
2022-09-09T18:43:43.401Z,1.73
2022-09-09T18:46:11.608Z,1.73
2022-09-09T18:48:40.717Z,0.70
2022-09-09T18:51:09.137Z,2.25
2022-09-09T18:53:36.934Z,2.25
2022-09-09T18:56:06.238Z,0.98
2022-09-09T18:58:34.094Z,5.13
2022-09-09T19:01:02.021Z,3.50
2022-09-09T19:03:30.519Z,2.05
2022-09-09T19:06:03.045Z,1.67
2022-09-09T19:08:30.573Z,1.30
2022-09-09T19:10:59.806Z,2.10
2022-09-09T19:13:27.794Z,1.85
2022-09-09T19:15:55.753Z,3.25
2022-09-09T19:18:23.682Z,1.20
2022-09-09T19:20:51.231Z,3.58
2022-09-09T19:23:20.138Z,1.42
2022-09-09T19:25:47.829Z,0.98
2022-09-09T19:28:15.361Z,1.20
2022-09-09T19:30:47.616Z,1.60
2022-09-09T19:33:15.208Z,1.20
2022-09-09T19:35:42.726Z,1.27
2022-09-09T19:38:10.292Z,1.73
2022-09-09T19:40:40.305Z,1.30
2022-09-09T19:43:07.892Z,1.55
2022-09-09T19:45:35.429Z,1.27
2022-09-09T19:48:03.407Z,1.20
2022-09-09T19:50:30.929Z,1.88
2022-09-09T19:53:00.635Z,1.20
2022-09-09T19:55:28.969Z,1.35
2022-09-09T19:57:58.092Z,1.42
2022-09-09T20:00:26.020Z,1.30
2022-09-09T20:03:17.497Z,1.30
2022-09-09T20:05:42.025Z,1.10
2022-09-09T20:08:09.560Z,1.33
2022-09-09T20:10:37.084Z,1.10
2022-09-09T20:13:06.066Z,1.00
2022-09-09T20:15:35.308Z,1.23
2022-09-09T20:18:04.503Z,1.30
2022-09-09T20:20:32.221Z,1.20
2022-09-09T20:22:59.890Z,1.55
2022-09-09T20:25:27.438Z,1.95
2022-09-09T20:27:54.962Z,1.25
2022-09-09T20:30:23.910Z,1.13
2022-09-09T20:32:51.522Z,1.38
2022-09-09T20:35:19.044Z,1.75
2022-09-09T20:37:46.812Z,1.50
2022-09-09T20:40:14.815Z,1.45
2022-09-09T20:42:43.261Z,1.20
2022-09-09T20:45:16.093Z,1.00
2022-09-09T20:47:44.974Z,1.30
2022-09-09T20:50:12.613Z,1.33
2022-09-09T20:52:40.133Z,1.30
2022-09-09T20:55:08.866Z,1.30
2022-09-09T20:57:36.948Z,1.10
2022-09-09T21:00:05.608Z,1.85
2022-09-09T21:02:33.284Z,1.92
2022-09-09T21:05:02.295Z,1.20
2022-09-09T21:07:29.935Z,1.10
2022-09-09T21:09:57.600Z,1.02
2022-09-09T21:12:25.187Z,1.40
2022-09-09T21:14:52.789Z,2.38
2022-09-09T21:17:23.400Z,2.03
2022-09-09T21:19:51.015Z,1.00
2022-09-09T21:22:19.873Z,1.27
2022-09-09T21:24:47.806Z,1.67
2022-09-09T21:27:15.468Z,3.00
2022-09-09T21:29:43.067Z,1.42
2022-09-09T21:32:10.582Z,1.45
2022-09-09T21:34:38.085Z,1.05
2022-09-09T21:37:05.733Z,1.20
2022-09-09T21:39:34.836Z,1.73
2022-09-09T21:42:02.552Z,1.13
2022-09-09T21:44:30.107Z,1.48
2022-09-09T21:46:57.637Z,1.05
2022-09-09T21:49:25.149Z,0.90
2022-09-09T21:51:52.888Z,1.10
2022-09-09T21:54:20.571Z,1.13
2022-09-09T21:56:52.210Z,1.23
2022-09-09T21:59:20.356Z,1.00
2022-09-09T22:01:48.252Z,1.25
2022-09-09T22:04:15.861Z,1.17
2022-09-09T22:06:43.403Z,1.20
2022-09-09T22:09:11.280Z,0.80
2022-09-09T22:11:40.768Z,0.90
2022-09-09T22:14:09.669Z,0.90
2022-09-09T22:16:37.225Z,1.05
2022-09-09T22:19:04.748Z,1.70
2022-09-09T22:21:32.876Z,0.80
2022-09-09T22:24:01.461Z,1.08
2022-09-09T22:26:31.574Z,1.15
2022-09-09T22:28:59.273Z,0.95
2022-09-09T22:31:28.478Z,1.15
2022-09-09T22:33:56.121Z,1.05
2022-09-09T22:36:23.781Z,1.67
2022-09-09T22:38:51.713Z,1.08
2022-09-09T22:41:19.855Z,1.10
2022-09-09T22:43:47.739Z,1.17
2022-09-09T22:46:15.385Z,0.80
2022-09-09T22:48:44.350Z,1.05
2022-09-09T22:51:13.262Z,0.90
2022-09-09T22:53:41.320Z,0.80
2022-09-09T22:56:10.117Z,3.33
2022-09-09T22:58:37.820Z,3.40
2022-09-09T23:01:09.843Z,1.05
2022-09-09T23:03:37.439Z,1.83
2022-09-09T23:06:06.721Z,0.82
2022-09-09T23:08:35.446Z,0.80
2022-09-09T23:11:08.904Z,1.00
2022-09-09T23:13:36.996Z,1.23
2022-09-09T23:16:10.468Z,1.17
2022-09-09T23:18:40.298Z,1.73
2022-09-09T23:21:09.585Z,0.95
2022-09-09T23:23:37.738Z,1.15
2022-09-09T23:26:05.501Z,0.80
2022-09-09T23:28:33.262Z,1.05
2022-09-09T23:31:00.951Z,0.80
2022-09-09T23:33:28.548Z,0.70
2022-09-09T23:36:02.205Z,1.17
2022-09-09T23:38:31.127Z,0.82
2022-09-09T23:40:59.107Z,0.88
2022-09-09T23:43:26.648Z,0.82
2022-09-09T23:45:54.179Z,1.27
2022-09-09T23:48:21.722Z,0.73
2022-09-09T23:50:50.643Z,0.95
2022-09-09T23:53:18.216Z,1.50
2022-09-09T23:55:47.080Z,0.90
2022-09-09T23:58:15.056Z,0.95
